| time (UTC) | temp F | wind direction | speed MPH | gust MPH | rain 1hr in | rain 24hr in | rain mn in | humidity % | barometer mb |
| 20260509005816 | 70 | 125 | 1.0 | 3.0 | 0.02 | 0.61 | 0.61 | 90 | 1010.8 |
| 20260509005313 | 70 | 81 | 1.0 | 3.0 | 0.03 | 0.61 | 0.61 | 90 | 1010.8 |
| 20260509004809 | 70 | 81 | 1.0 | 3.0 | 0.04 | 0.61 | 0.61 | 90 | 1010.9 |
| 20260509004306 | 70 | 72 | 0.0 | 0.0 | 0.04 | 0.61 | 0.61 | 90 | 1011.0 |
| 20260509003802 | 70 | 67 | 0.0 | 5.0 | 0.05 | 0.61 | 0.61 | 90 | 1011.0 |
| 20260509003259 | 70 | 103 | 0.0 | 5.0 | 0.06 | 0.61 | 0.61 | 90 | 1010.9 |
| 20260509002815 | 70 | 176 | 2.0 | 5.0 | 0.07 | 0.61 | 0.61 | 90 | 1011.0 |
| 20260509002311 | 70 | 133 | 0.0 | 0.0 | 0.08 | 0.61 | 0.61 | 90 | 1011.1 |
| 20260509001808 | 70 | 133 | 0.0 | 0.0 | 0.08 | 0.61 | 0.61 | 90 | 1011.3 |
| 20260509001302 | 70 | 133 | 0.0 | 0.0 | 0.08 | 0.60 | 0.60 | 90 | 1011.5 |
| 20260509000819 | 70 | 133 | 0.0 | 0.0 | 0.09 | 0.60 | 0.60 | 90 | 1011.5 |
| 20260509000318 | 70 | 133 | 0.0 | 0.0 | 0.10 | 0.59 | 0.59 | 90 | 1011.6 |
| 20260508235812 | 70 | 133 | 0.0 | 0.0 | 0.11 | 0.59 | 0.59 | 90 | 1011.8 |
| 20260508235307 | 69 | 133 | 0.0 | 0.0 | 0.11 | 0.58 | 0.58 | 90 | 1011.8 |
| 20260508234803 | 69 | 133 | 0.0 | 0.0 | 0.11 | 0.57 | 0.57 | 90 | 1011.9 |
| 20260508234300 | 69 | 133 | 0.0 | 0.0 | 0.12 | 0.57 | 0.57 | 90 | 1011.9 |
| 20260508233843 | 69 | 133 | 0.0 | 0.0 | 0.12 | 0.56 | 0.56 | 90 | 1011.9 |
| 20260508233319 | 69 | 133 | 0.0 | 0.0 | 0.13 | 0.55 | 0.55 | 90 | 1011.8 |
| 20260508232816 | 69 | 133 | 0.0 | 0.0 | 0.13 | 0.54 | 0.54 | 90 | 1011.9 |
| 20260508232313 | 69 | 133 | 0.0 | 0.0 | 0.13 | 0.53 | 0.53 | 90 | 1011.9 |
| 20260508231811 | 69 | 133 | 0.0 | 0.0 | 0.15 | 0.53 | 0.53 | 90 | 1011.8 |
| 20260508231328 | 69 | 132 | 0.0 | 2.0 | 0.15 | 0.52 | 0.52 | 90 | 1011.8 |
| 20260508230849 | 69 | 132 | 0.0 | 5.0 | 0.15 | 0.51 | 0.51 | 90 | 1011.4 |
| 20260508230304 | 69 | 132 | 1.0 | 5.0 | 0.15 | 0.49 | 0.49 | 90 | 1011.4 |
| 20260508225800 | 69 | 115 | 2.0 | 9.0 | 0.15 | 0.48 | 0.48 | 90 | 1011.6 |
| 20260508225317 | 69 | 79 | 3.0 | 9.0 | 0.16 | 0.47 | 0.47 | 89 | 1011.8 |
| 20260508224813 | 69 | 153 | 3.0 | 6.0 | 0.16 | 0.46 | 0.46 | 90 | 1011.7 |
| 20260508224310 | 68 | 167 | 1.0 | 8.0 | 0.17 | 0.45 | 0.45 | 89 | 1011.8 |
| 20260508223807 | 68 | 103 | 3.0 | 6.0 | 0.17 | 0.44 | 0.44 | 89 | 1011.7 |
| 20260508223304 | 68 | 175 | 3.0 | 6.0 | 0.17 | 0.42 | 0.42 | 89 | 1012.0 |
| 20260508222802 | 68 | 184 | 2.0 | 7.0 | 0.18 | 0.41 | 0.41 | 89 | 1011.8 |
| 20260508222317 | 68 | 141 | 3.0 | 7.0 | 0.18 | 0.40 | 0.40 | 89 | 1011.6 |
| 20260508221813 | 68 | 62 | 2.0 | 7.0 | 0.18 | 0.38 | 0.38 | 89 | 1011.5 |
| 20260508221309 | 68 | 151 | 2.0 | 8.0 | 0.19 | 0.37 | 0.37 | 89 | 1011.5 |
| 20260508220805 | 68 | 69 | 3.0 | 9.0 | 0.20 | 0.36 | 0.36 | 89 | 1011.4 |
| 20260508220318 | 68 | 78 | 1.0 | 9.0 | 0.20 | 0.34 | 0.34 | 89 | 1011.6 |
| 20260508215834 | 69 | 163 | 2.0 | 7.0 | 0.21 | 0.33 | 0.33 | 89 | 1011.9 |
| 20260508215309 | 69 | 77 | 4.0 | 9.0 | 0.21 | 0.31 | 0.31 | 89 | 1012.1 |
| 20260508214806 | 69 | 87 | 2.0 | 8.0 | 0.22 | 0.30 | 0.30 | 89 | 1012.5 |
| 20260508214302 | 69 | 109 | 1.0 | 6.0 | 0.22 | 0.28 | 0.28 | 89 | 1012.4 |
| 20260508213819 | 68 | 81 | 0.0 | 6.0 | 0.24 | 0.27 | 0.27 | 89 | 1012.5 |
| 20260508213315 | 69 | 138 | 2.0 | 7.0 | 0.23 | 0.25 | 0.25 | 89 | 1012.7 |
| 20260508212812 | 68 | 37 | 1.0 | 5.0 | 0.23 | 0.23 | 0.23 | 89 | 1013.0 |
| 20260508212309 | 68 | 58 | 1.0 | 5.0 | 0.21 | 0.21 | 0.21 | 89 | 1013.2 |
| 20260508211805 | 68 | 46 | 2.0 | 9.0 | 0.20 | 0.20 | 0.20 | 89 | 1012.9 |
| 20260508211302 | 68 | 59 | 3.0 | 9.0 | 0.18 | 0.18 | 0.18 | 89 | 1013.0 |
| 20260508210819 | 68 | 297 | 2.0 | 7.0 | 0.16 | 0.16 | 0.16 | 89 | 1012.8 |
| 20260508210314 | 68 | 24 | 2.0 | 7.0 | 0.14 | 0.14 | 0.14 | 88 | 1013.6 |
| 20260508205809 | 68 | 53 | 3.0 | 11.0 | 0.12 | 0.12 | 0.12 | 88 | 1013.4 |
| 20260508205306 | 69 | 18 | 4.0 | 11.0 | 0.10 | 0.10 | 0.10 | 87 | 1013.0 |
| 20260508204801 | 69 | 57 | 2.0 | 11.0 | 0.08 | 0.08 | 0.08 | 87 | 1013.2 |
| 20260508204344 | 69 | 36 | 3.0 | 11.0 | 0.06 | 0.06 | 0.06 | 86 | 1013.3 |
| 20260508203838 | 69 | 32 | 3.0 | 13.0 | 0.03 | 0.03 | 0.03 | 85 | 1013.0 |
| 20260508203333 | 70 | 76 | 3.0 | 13.0 | 0.02 | 0.02 | 0.02 | 83 | 1012.9 |
| 20260508202819 | 70 | 5 | 3.0 | 18.0 | 0.00 | 0.00 | 0.00 | 82 | 1012.8 |
| 20260508202315 | 70 | 16 | 3.0 | 18.0 | 0.00 | 0.00 | 0.00 | 82 | 1012.7 |
| 20260508201830 | 70 | 64 | 3.0 | 14.0 | 0.00 | 0.00 | 0.00 | 81 | 1012.7 |
| 20260508201306 | 70 | 22 | 4.0 | 14.0 | 0.00 | 0.00 | 0.00 | 81 | 1012.9 |
| 20260508200802 | 70 | 71 | 4.0 | 13.0 | 0.00 | 0.00 | 0.00 | 81 | 1012.8 |
| 20260508200336 | 70 | 76 | 3.0 | 13.0 | 0.00 | 0.00 | 0.00 | 80 | 1012.4 |
| 20260508195811 | 71 | 38 | 4.0 | 15.0 | 0.00 | 0.00 | 0.00 | 80 | 1012.5 |
| 20260508195326 | 71 | 118 | 4.0 | 15.0 | 0.00 | 0.00 | 0.00 | 79 | 1012.6 |
| 20260508194800 | 72 | 5 | 3.0 | 9.0 | 0.00 | 0.00 | 0.00 | 79 | 1012.8 |
| 20260508193811 | 73 | 323 | 2.0 | 9.0 | 0.00 | 0.00 | 0.00 | 79 | 1013.0 |
| 20260508193308 | 73 | 310 | 3.0 | 9.0 | 0.00 | 0.00 | 0.00 | 79 | 1013.1 |
| 20260508192804 | 74 | 350 | 2.0 | 8.0 | 0.00 | 0.00 | 0.00 | 79 | 1013.3 |
| 20260508192321 | 74 | 32 | 1.0 | 8.0 | 0.00 | 0.00 | 0.00 | 79 | 1013.3 |
| 20260508191838 | 75 | 63 | 2.0 | 8.0 | 0.00 | 0.00 | 0.00 | 79 | 1013.3 |
| 20260508191313 | 75 | 116 | 0.0 | 3.0 | 0.00 | 0.00 | 0.00 | 79 | 1013.4 |
| 20260508190808 | 75 | 96 | 0.0 | 5.0 | 0.00 | 0.00 | 0.00 | 79 | 1013.4 |
| 20260508190303 | 75 | 38 | 1.0 | 5.0 | 0.00 | 0.00 | 0.00 | 78 | 1013.2 |
| 20260508185800 | 75 | 59 | 0.0 | 5.0 | 0.00 | 0.00 | 0.00 | 78 | 1012.9 |
| 20260508185316 | 75 | 61 | 2.0 | 5.0 | 0.00 | 0.00 | 0.00 | 78 | 1012.8 |
| 20260508184812 | 75 | 132 | 2.0 | 7.0 | 0.00 | 0.00 | 0.00 | 78 | 1012.8 |
| 20260508184308 | 75 | 157 | 2.0 | 7.0 | 0.00 | 0.00 | 0.00 | 78 | 1012.7 |
| 20260508183803 | 75 | 67 | 1.0 | 8.0 | 0.00 | 0.00 | 0.00 | 78 | 1012.7 |
| 20260508183320 | 76 | 88 | 3.0 | 10.0 | 0.00 | 0.00 | 0.00 | 77 | 1012.7 |
| 20260508182815 | 76 | 94 | 3.0 | 10.0 | 0.00 | 0.00 | 0.00 | 77 | 1012.6 |
| 20260508182310 | 76 | 74 | 3.0 | 7.0 | 0.00 | 0.00 | 0.00 | 76 | 1012.7 |
| 20260508181817 | 76 | 73 | 2.0 | 8.0 | 0.00 | 0.00 | 0.00 | 76 | 1012.8 |
| 20260508181313 | 76 | 57 | 3.0 | 8.0 | 0.00 | 0.00 | 0.00 | 76 | 1012.8 |
| 20260508180810 | 76 | 98 | 3.0 | 12.0 | 0.00 | 0.00 | 0.00 | 76 | 1012.6 |
| 20260508180305 | 77 | 71 | 5.0 | 12.0 | 0.00 | 0.00 | 0.00 | 75 | 1012.6 |
| 20260508175800 | 77 | 107 | 4.0 | 11.0 | 0.00 | 0.00 | 0.00 | 74 | 1012.7 |
| 20260508175317 | 77 | 137 | 1.0 | 11.0 | 0.00 | 0.00 | 0.00 | 74 | 1012.6 |
| 20260508174814 | 77 | 81 | 2.0 | 8.0 | 0.00 | 0.00 | 0.00 | 74 | 1012.5 |
| 20260508174310 | 77 | 52 | 2.0 | 15.0 | 0.00 | 0.00 | 0.00 | 73 | 1012.6 |
| 20260508173825 | 78 | 94 | 4.0 | 15.0 | 0.00 | 0.00 | 0.00 | 73 | 1012.8 |
| 20260508173341 | 78 | 76 | 1.0 | 10.0 | 0.00 | 0.00 | 0.00 | 73 | 1012.9 |
| 20260508172816 | 78 | 60 | 1.0 | 9.0 | 0.00 | 0.00 | 0.00 | 73 | 1013.0 |
| 20260508172312 | 78 | 66 | 2.0 | 9.0 | 0.00 | 0.00 | 0.00 | 73 | 1013.3 |
| 20260508171808 | 78 | 72 | 0.0 | 0.0 | 0.00 | 0.00 | 0.00 | 72 | 1013.4 |
| 20260508171305 | 78 | 112 | 0.0 | 0.0 | 0.00 | 0.00 | 0.00 | 73 | 1013.5 |
| 20260508170821 | 78 | 92 | 0.0 | 0.0 | 0.00 | 0.00 | 0.00 | 73 | 1013.3 |
| 20260508170315 | 77 | 63 | 0.0 | 0.0 | 0.00 | 0.00 | 0.00 | 73 | 1013.3 |
| 20260508165812 | 78 | 74 | 0.0 | 8.0 | 0.00 | 0.00 | 0.00 | 72 | 1013.3 |
| 20260508165308 | 78 | 66 | 3.0 | 8.0 | 0.00 | 0.00 | 0.00 | 72 | 1013.3 |
| 20260508164803 | 78 | 137 | 2.0 | 10.0 | 0.00 | 0.00 | 0.00 | 73 | 1013.2 |
| 20260508164301 | 77 | 143 | 2.0 | 10.0 | 0.00 | 0.00 | 0.00 | 73 | 1013.2 |
| 20260508163817 | 77 | 115 | 0.0 | 7.0 | 0.00 | 0.00 | 0.00 | 74 | 1013.2 |
| 20260508163312 | 77 | 102 | 0.0 | 8.0 | 0.00 | 0.00 | 0.00 | 74 | 1013.3 |
| 20260508162806 | 77 | 165 | 1.0 | 8.0 | 0.00 | 0.00 | 0.00 | 75 | 1013.3 |
| 20260508162306 | 76 | 180 | 1.0 | 8.0 | 0.00 | 0.00 | 0.00 | 75 | 1013.3 |
| 20260508161818 | 76 | 78 | 1.0 | 9.0 | 0.00 | 0.00 | 0.00 | 76 | 1013.4 |
| 20260508161313 | 75 | 119 | 1.0 | 12.0 | 0.00 | 0.00 | 0.00 | 77 | 1013.5 |
| 20260508160853 | 75 | 113 | 3.0 | 12.0 | 0.00 | 0.00 | 0.00 | 77 | 1013.7 |
| 20260508160306 | 74 | 90 | 0.0 | 10.0 | 0.00 | 0.00 | 0.00 | 78 | 1013.8 |
| 20260508155803 | 74 | 55 | 3.0 | 10.0 | 0.00 | 0.00 | 0.00 | 78 | 1013.9 |
| 20260508155300 | 74 | 11 | 3.0 | 10.0 | 0.00 | 0.00 | 0.00 | 78 | 1013.9 |
| 20260508154816 | 74 | 141 | 3.0 | 7.0 | 0.00 | 0.00 | 0.00 | 78 | 1014.0 |
| 20260508154313 | 74 | 69 | 2.0 | 6.0 | 0.00 | 0.00 | 0.00 | 79 | 1014.0 |
| 20260508153830 | 73 | 140 | 2.0 | 6.0 | 0.00 | 0.00 | 0.00 | 78 | 1014.1 |
| 20260508153306 | 73 | 97 | 0.0 | 8.0 | 0.00 | 0.00 | 0.00 | 79 | 1014.2 |
| 20260508152802 | 73 | 78 | 2.0 | 8.0 | 0.00 | 0.00 | 0.00 | 78 | 1014.2 |
| 20260508152318 | 73 | 56 | 4.0 | 8.0 | 0.00 | 0.00 | 0.00 | 78 | 1014.1 |
| 20260508151813 | 73 | 71 | 1.0 | 9.0 | 0.00 | 0.00 | 0.00 | 79 | 1014.0 |
| 20260508151310 | 73 | 53 | 3.0 | 9.0 | 0.00 | 0.00 | 0.00 | 79 | 1013.9 |
| 20260508150806 | 73 | 74 | 1.0 | 5.0 | 0.00 | 0.00 | 0.00 | 79 | 1013.8 |
| 20260508150303 | 73 | 72 | 2.0 | 5.0 | 0.00 | 0.00 | 0.00 | 79 | 1013.8 |
| 20260508145819 | 73 | 76 | 0.0 | 8.0 | 0.00 | 0.00 | 0.00 | 78 | 1013.8 |
| 20260508145317 | 73 | 78 | 327.0 | 327.0 | 0.00 | 0.00 | 0.00 | 78 | 1013.9 |
| 20260508144812 | 73 | 89 | 1.0 | 8.0 | 0.00 | 0.00 | 0.00 | 77 | 1014.0 |
| 20260508144308 | 73 | 355 | 0.0 | 9.0 | 0.00 | 0.00 | 0.00 | 77 | 1013.9 |
| 20260508143805 | 73 | 171 | 3.0 | 9.0 | 0.00 | 0.00 | 0.00 | 76 | 1013.8 |
| 20260508143301 | 73 | 156 | 1.0 | 7.0 | 0.00 | 0.00 | 0.00 | 76 | 1013.7 |
| 20260508142818 | 73 | 73 | 1.0 | 7.0 | 0.00 | 0.00 | 0.00 | 76 | 1013.7 |
| 20260508142314 | 73 | 38 | 2.0 | 6.0 | 0.00 | 0.00 | 0.00 | 76 | 1013.5 |
| 20260508141810 | 73 | 74 | 1.0 | 10.0 | 0.00 | 0.00 | 0.00 | 77 | 1013.6 |
| 20260508141307 | 72 | 80 | 2.0 | 10.0 | 0.00 | 0.01 | 0.00 | 78 | 1013.7 |
| 20260508140803 | 72 | 151 | 2.0 | 6.0 | 0.00 | 0.01 | 0.00 | 77 | 1013.9 |
| 20260508140300 | 71 | 70 | 0.0 | 4.0 | 0.00 | 0.01 | 0.00 | 79 | 1013.9 |
| 20260508135816 | 71 | 84 | 0.0 | 8.0 | 0.00 | 0.01 | 0.00 | 79 | 1013.8 |
| 20260508135314 | 70 | 67 | 1.0 | 8.0 | 0.00 | 0.01 | 0.00 | 79 | 1013.9 |
| 20260508134810 | 70 | 100 | 2.0 | 8.0 | 0.00 | 0.01 | 0.00 | 79 | 1013.9 |
| 20260508134306 | 70 | 80 | 3.0 | 7.0 | 0.00 | 0.01 | 0.00 | 79 | 1014.0 |
| 20260508133803 | 70 | 108 | 1.0 | 8.0 | 0.00 | 0.01 | 0.00 | 79 | 1014.1 |
| 20260508133320 | 70 | 74 | 2.0 | 8.0 | 0.00 | 0.01 | 0.00 | 78 | 1014.1 |
| 20260508132816 | 70 | 85 | 1.0 | 8.0 | 0.00 | 0.01 | 0.00 | 79 | 1014.0 |
| 20260508132311 | 70 | 104 | 0.0 | 7.0 | 0.00 | 0.01 | 0.00 | 79 | 1013.9 |
| 20260508131808 | 70 | 65 | 2.0 | 8.0 | 0.00 | 0.01 | 0.00 | 79 | 1013.9 |
| 20260508131305 | 70 | 94 | 2.0 | 8.0 | 0.00 | 0.01 | 0.00 | 79 | 1014.1 |
| 20260508130802 | 70 | 77 | 1.0 | 5.0 | 0.00 | 0.01 | 0.00 | 80 | 1014.2 |
| 20260508130320 | 70 | 66 | 2.0 | 5.0 | 0.00 | 0.01 | 0.00 | 79 | 1014.3 |
| 20260508125817 | 70 | 84 | 0.0 | 5.0 | 0.00 | 0.01 | 0.00 | 80 | 1014.3 |
| 20260508125313 | 70 | 156 | 1.0 | 5.0 | 0.00 | 0.01 | 0.00 | 79 | 1014.4 |
| 20260508124810 | 70 | 109 | 1.0 | 5.0 | 0.00 | 0.01 | 0.00 | 80 | 1014.6 |
| 20260508124325 | 70 | 30 | 1.0 | 3.0 | 0.00 | 0.01 | 0.00 | 80 | 1014.6 |
| 20260508123841 | 70 | 107 | 1.0 | 5.0 | 0.00 | 0.01 | 0.00 | 80 | 1014.6 |
| 20260508123317 | 70 | 66 | 1.0 | 5.0 | 0.00 | 0.01 | 0.00 | 80 | 1014.6 |
| 20260508122814 | 70 | 42 | 1.0 | 5.0 | 0.00 | 0.01 | 0.00 | 80 | 1014.5 |
| 20260508122309 | 70 | 115 | 1.0 | 7.0 | 0.00 | 0.01 | 0.00 | 80 | 1014.4 |
| 20260508121804 | 70 | 88 | 2.0 | 7.0 | 0.00 | 0.01 | 0.00 | 80 | 1014.3 |
| 20260508121301 | 70 | 88 | 1.0 | 5.0 | 0.00 | 0.01 | 0.00 | 80 | 1014.4 |
| 20260508120816 | 70 | 69 | 1.0 | 6.0 | 0.00 | 0.01 | 0.00 | 79 | 1014.3 |
| 20260508120313 | 70 | 129 | 2.0 | 6.0 | 0.00 | 0.01 | 0.00 | 79 | 1014.0 |
| 20260508115825 | 70 | 63 | 1.0 | 4.0 | 0.00 | 0.01 | 0.00 | 80 | 1013.7 |
| 20260508115301 | 70 | 77 | 1.0 | 4.0 | 0.00 | 0.01 | 0.00 | 80 | 1013.5 |
| 20260508114817 | 70 | 76 | 0.0 | 7.0 | 0.00 | 0.01 | 0.00 | 80 | 1013.8 |
| 20260508114314 | 70 | 66 | 1.0 | 7.0 | 0.00 | 0.01 | 0.00 | 80 | 1013.8 |
| 20260508113810 | 70 | 90 | 1.0 | 7.0 | 0.00 | 0.01 | 0.00 | 80 | 1013.5 |
| 20260508113306 | 70 | 116 | 2.0 | 7.0 | 0.00 | 0.01 | 0.00 | 80 | 1013.6 |
| 20260508112301 | 70 | 80 | 0.0 | 4.0 | 0.00 | 0.01 | 0.00 | 81 | 1014.2 |
| 20260508111817 | 70 | 77 | 0.0 | 2.0 | 0.00 | 0.01 | 0.00 | 81 | 1014.3 |
| 20260508111314 | 70 | 77 | 0.0 | 2.0 | 0.00 | 0.01 | 0.00 | 81 | 1014.4 |
| 20260508110810 | 70 | 77 | 0.0 | 2.0 | 0.00 | 0.01 | 0.00 | 80 | 1014.4 |
| 20260508110307 | 70 | 77 | 1.0 | 2.0 | 0.00 | 0.01 | 0.00 | 80 | 1014.1 |
| 20260508105824 | 70 | 76 | 0.0 | 2.0 | 0.00 | 0.01 | 0.00 | 80 | 1014.0 |
| 20260508105306 | 69 | 76 | 0.0 | 2.0 | 0.00 | 0.01 | 0.00 | 80 | 1014.2 |
| 20260508104839 | 70 | 76 | 0.0 | 2.0 | 0.00 | 0.01 | 0.00 | 80 | 1014.0 |
| 20260508104333 | 69 | 76 | 0.0 | 2.0 | 0.00 | 0.01 | 0.00 | 80 | 1013.9 |
| 20260508103808 | 69 | 76 | 0.0 | 3.0 | 0.00 | 0.01 | 0.00 | 80 | 1013.8 |
| 20260508103305 | 69 | 76 | 1.0 | 3.0 | 0.00 | 0.01 | 0.00 | 80 | 1013.6 |
| 20260508102821 | 69 | 76 | 0.0 | 1.0 | 0.00 | 0.01 | 0.00 | 80 | 1013.5 |
| 20260508102336 | 69 | 76 | 0.0 | 2.0 | 0.00 | 0.01 | 0.00 | 81 | 1013.5 |
| 20260508101812 | 69 | 76 | 0.0 | 4.0 | 0.00 | 0.01 | 0.00 | 81 | 1013.4 |
| 20260508101308 | 69 | 76 | 0.0 | 5.0 | 0.00 | 0.01 | 0.00 | 80 | 1013.0 |
| 20260508100804 | 69 | 78 | 2.0 | 6.0 | 0.00 | 0.01 | 0.00 | 80 | 1012.9 |
| 20260508100319 | 70 | 103 | 1.0 | 6.0 | 0.00 | 0.01 | 0.00 | 81 | 1012.8 |
| 20260508095814 | 70 | 107 | 1.0 | 5.0 | 0.00 | 0.01 | 0.00 | 81 | 1012.9 |
| 20260508095312 | 70 | 51 | 1.0 | 7.0 | 0.00 | 0.01 | 0.00 | 81 | 1012.9 |
| 20260508094821 | 70 | 52 | 1.0 | 10.0 | 0.00 | 0.01 | 0.00 | 81 | 1012.9 |
| 20260508094309 | 70 | 92 | 2.0 | 5.0 | 0.00 | 0.01 | 0.00 | 81 | 1012.7 |
| 20260508093824 | 70 | 55 | 0.0 | 5.0 | 0.00 | 0.01 | 0.00 | 81 | 1013.0 |
| 20260508093341 | 70 | 45 | 1.0 | 5.0 | 0.00 | 0.01 | 0.00 | 81 | 1013.1 |
| 20260508092833 | 70 | 70 | 0.0 | 3.0 | 0.00 | 0.01 | 0.00 | 81 | 1013.1 |
| 20260508092313 | 70 | 78 | 0.0 | 8.0 | 0.00 | 0.01 | 0.00 | 81 | 1013.1 |
| 20260508091803 | 70 | 336 | 1.0 | 8.0 | 0.00 | 0.01 | 0.00 | 82 | 1013.0 |
| 20260508091317 | 70 | 22 | 1.0 | 5.0 | 0.00 | 0.01 | 0.00 | 81 | 1012.9 |
| 20260508090814 | 70 | 9 | 0.0 | 2.0 | 0.00 | 0.01 | 0.00 | 81 | 1012.9 |
| 20260508090310 | 70 | 86 | 0.0 | 2.0 | 0.00 | 0.01 | 0.00 | 81 | 1012.9 |
| 20260508085807 | 70 | 60 | 0.0 | 3.0 | 0.00 | 0.01 | 0.00 | 81 | 1012.9 |
| 20260508085306 | 70 | 46 | 0.0 | 3.0 | 0.00 | 0.01 | 0.00 | 81 | 1013.0 |
| 20260508084817 | 71 | 80 | 0.0 | 5.0 | 0.00 | 0.01 | 0.00 | 82 | 1013.1 |
| 20260508084313 | 71 | 96 | 1.0 | 5.0 | 0.00 | 0.01 | 0.00 | 82 | 1013.1 |
| 20260508083809 | 71 | 48 | 0.0 | 3.0 | 0.00 | 0.01 | 0.00 | 82 | 1013.1 |
| 20260508083305 | 71 | 50 | 0.0 | 2.0 | 0.00 | 0.01 | 0.00 | 82 | 1013.1 |
| 20260508082801 | 71 | 56 | 0.0 | 2.0 | 0.00 | 0.01 | 0.00 | 82 | 1013.0 |
| 20260508082317 | 71 | 72 | 0.0 | 1.0 | 0.00 | 0.01 | 0.00 | 82 | 1012.9 |
| 20260508081814 | 71 | 118 | 0.0 | 2.0 | 0.00 | 0.01 | 0.00 | 81 | 1012.9 |
| 20260508081311 | 71 | 49 | 0.0 | 5.0 | 0.00 | 0.01 | 0.00 | 81 | 1012.9 |
| 20260508080806 | 71 | 105 | 0.0 | 5.0 | 0.00 | 0.01 | 0.00 | 81 | 1013.1 |
| 20260508080302 | 71 | 29 | 0.0 | 6.0 | 0.00 | 0.01 | 0.00 | 81 | 1013.1 |
| 20260508075821 | 71 | 63 | 0.0 | 6.0 | 0.00 | 0.01 | 0.00 | 81 | 1013.0 |
| 20260508075310 | 71 | 89 | 1.0 | 5.0 | 0.00 | 0.01 | 0.00 | 81 | 1013.0 |
| 20260508074807 | 71 | 84 | 0.0 | 1.0 | 0.00 | 0.01 | 0.00 | 81 | 1013.2 |
| 20260508074303 | 71 | 28 | 0.0 | 1.0 | 0.00 | 0.01 | 0.00 | 81 | 1013.3 |
| 20260508073820 | 71 | 28 | 0.0 | 2.0 | 0.00 | 0.01 | 0.00 | 81 | 1013.2 |
| 20260508073316 | 71 | 28 | 0.0 | 2.0 | 0.00 | 0.01 | 0.00 | 81 | 1013.2 |
| 20260508072810 | 71 | 65 | 0.0 | 2.0 | 0.00 | 0.01 | 0.00 | 81 | 1013.0 |
| 20260508072307 | 72 | 60 | 0.0 | 2.0 | 0.00 | 0.01 | 0.00 | 81 | 1012.9 |
| 20260508071801 | 72 | 54 | 0.0 | 0.0 | 0.00 | 0.01 | 0.00 | 81 | 1013.0 |
| 20260508071317 | 72 | 54 | 0.0 | 2.0 | 0.00 | 0.01 | 0.00 | 81 | 1013.0 |
| 20260508070814 | 72 | 86 | 0.0 | 2.0 | 0.00 | 0.01 | 0.00 | 80 | 1013.0 |
| 20260508070331 | 72 | 72 | 0.0 | 1.0 | 0.00 | 0.01 | 0.00 | 81 | 1013.0 |
| 20260508065806 | 72 | 72 | 0.0 | 2.0 | 0.00 | 0.01 | 0.00 | 80 | 1012.9 |
| 20260508065306 | 72 | 72 | 0.0 | 2.0 | 0.00 | 0.01 | 0.00 | 80 | 1013.2 |
| 20260508064817 | 72 | 65 | 0.0 | 1.0 | 0.00 | 0.01 | 0.00 | 81 | 1013.4 |
| 20260508064313 | 72 | 36 | 0.0 | 1.0 | 0.00 | 0.01 | 0.00 | 81 | 1013.5 |
| 20260508063809 | 72 | 36 | 0.0 | 2.0 | 0.00 | 0.01 | 0.00 | 81 | 1013.5 |
| 20260508063306 | 72 | 86 | 0.0 | 0.0 | 0.00 | 0.01 | 0.00 | 81 | 1013.5 |
| 20260508062803 | 72 | 86 | 0.0 | 0.0 | 0.00 | 0.01 | 0.00 | 81 | 1013.3 |
| 20260508062319 | 72 | 86 | 0.0 | 0.0 | 0.00 | 0.01 | 0.00 | 81 | 1013.3 |
| 20260508061816 | 72 | 86 | 0.0 | 0.0 | 0.00 | 0.01 | 0.00 | 81 | 1013.4 |
| 20260508061311 | 72 | 86 | 0.0 | 1.0 | 0.00 | 0.01 | 0.00 | 81 | 1013.5 |
| 20260508060806 | 72 | 86 | 0.0 | 1.0 | 0.00 | 0.01 | 0.00 | 81 | 1013.5 |
| 20260508060323 | 72 | 86 | 0.0 | 1.0 | 0.00 | 0.01 | 0.00 | 81 | 1013.4 |
| 20260508055813 | 72 | 53 | 0.0 | 2.0 | 0.00 | 0.01 | 0.00 | 81 | 1013.6 |
| 20260508055310 | 72 | 53 | 0.0 | 2.0 | 0.00 | 0.01 | 0.00 | 81 | 1013.8 |
| 20260508054806 | 72 | 34 | 0.0 | 2.0 | 0.00 | 0.01 | 0.00 | 81 | 1013.9 |
| 20260508053818 | 72 | 80 | 0.0 | 2.0 | 0.00 | 0.01 | 0.00 | 81 | 1013.8 |
| 20260508053314 | 72 | 41 | 0.0 | 1.0 | 0.00 | 0.01 | 0.00 | 81 | 1013.9 |
| 20260508052812 | 72 | 61 | 0.0 | 0.0 | 0.00 | 0.01 | 0.00 | 81 | 1014.0 |
| 20260508052307 | 72 | 83 | 0.0 | 2.0 | 0.00 | 0.01 | 0.00 | 80 | 1014.0 |
| 20260508051823 | 72 | 84 | 0.0 | 3.0 | 0.00 | 0.01 | 0.00 | 80 | 1013.9 |
| 20260508051338 | 72 | 140 | 0.0 | 3.0 | 0.00 | 0.01 | 0.00 | 80 | 1013.9 |
| 20260508050835 | 72 | 79 | 0.0 | 2.0 | 0.00 | 0.01 | 0.00 | 80 | 1014.0 |
| 20260508050310 | 72 | 27 | 0.0 | 2.0 | 0.00 | 0.01 | 0.00 | 80 | 1014.1 |
| 20260508045807 | 72 | 50 | 0.0 | 2.0 | 0.00 | 0.01 | 0.00 | 80 | 1014.2 |
| 20260508045306 | 72 | 50 | 0.0 | 2.0 | 0.00 | 0.01 | 0.00 | 80 | 1014.2 |
| 20260508044821 | 72 | 46 | 0.0 | 4.0 | 0.00 | 0.01 | 0.00 | 80 | 1014.1 |
| 20260508044316 | 72 | 355 | 0.0 | 4.0 | 0.00 | 0.01 | 0.00 | 80 | 1014.2 |
| 20260508043812 | 72 | 329 | 0.0 | 1.0 | 0.00 | 0.01 | 0.00 | 80 | 1014.2 |
| 20260508043309 | 72 | 87 | 0.0 | 4.0 | 0.00 | 0.01 | 0.00 | 80 | 1014.3 |
| 20260508042805 | 72 | 22 | 1.0 | 4.0 | 0.00 | 0.01 | 0.00 | 80 | 1014.3 |
| 20260508042301 | 72 | 9 | 1.0 | 4.0 | 0.00 | 0.01 | 0.00 | 80 | 1014.2 |
| 20260508041819 | 72 | 86 | 0.0 | 4.0 | 0.00 | 0.01 | 0.00 | 80 | 1014.3 |
| 20260508041315 | 72 | 46 | 1.0 | 3.0 | 0.00 | 0.01 | 0.00 | 80 | 1014.3 |
| 20260508040811 | 73 | 9 | 0.0 | 2.0 | 0.00 | 0.01 | 0.00 | 80 | 1014.5 |
| 20260508040308 | 73 | 44 | 0.0 | 3.0 | 0.00 | 0.01 | 0.00 | 80 | 1014.1 |
| 20260508035852 | 73 | 13 | 0.0 | 4.0 | 0.00 | 0.01 | 0.00 | 80 | 1014.4 |
| 20260508035306 | 73 | 24 | 0.0 | 3.0 | 0.00 | 0.01 | 0.00 | 79 | 1014.7 |
| 20260508034819 | 73 | 22 | 0.0 | 2.0 | 0.00 | 0.01 | 0.00 | 79 | 1014.7 |
| 20260508034316 | 73 | 23 | 0.0 | 3.0 | 0.00 | 0.01 | 0.00 | 79 | 1014.6 |
| 20260508033813 | 73 | 28 | 0.0 | 6.0 | 0.00 | 0.01 | 0.00 | 79 | 1014.5 |
| 20260508033311 | 73 | 24 | 0.0 | 6.0 | 0.00 | 0.01 | 0.00 | 79 | 1014.5 |
| 20260508032807 | 74 | 24 | 1.0 | 3.0 | 0.00 | 0.01 | 0.00 | 78 | 1014.5 |
| 20260508032306 | 74 | 92 | 0.0 | 3.0 | 0.00 | 0.01 | 0.00 | 79 | 1014.5 |
| 20260508031821 | 74 | 316 | 0.0 | 2.0 | 0.00 | 0.01 | 0.00 | 78 | 1014.6 |
| 20260508031315 | 74 | 77 | 0.0 | 4.0 | 0.00 | 0.01 | 0.00 | 78 | 1014.8 |
| 20260508030813 | 74 | 19 | 0.0 | 4.0 | 0.00 | 0.01 | 0.00 | 78 | 1014.7 |
| 20260508030310 | 74 | 22 | 0.0 | 5.0 | 0.00 | 0.01 | 0.00 | 78 | 1014.5 |
| 20260508025805 | 74 | 360 | 1.0 | 5.0 | 0.00 | 0.01 | 0.00 | 78 | 1014.1 |
| 20260508025317 | 74 | 42 | 0.0 | 3.0 | 0.00 | 0.01 | 0.00 | 77 | 1014.1 |
| 20260508024834 | 74 | 27 | 0.0 | 4.0 | 0.00 | 0.01 | 0.00 | 77 | 1014.3 |
| 20260508024308 | 75 | 40 | 0.0 | 5.0 | 0.00 | 0.01 | 0.00 | 76 | 1014.3 |
| 20260508023825 | 75 | 26 | 0.0 | 5.0 | 0.00 | 0.01 | 0.00 | 76 | 1014.3 |
| 20260508023342 | 75 | 19 | 1.0 | 6.0 | 0.00 | 0.01 | 0.00 | 77 | 1014.2 |
| 20260508022817 | 75 | 25 | 2.0 | 6.0 | 0.00 | 0.01 | 0.00 | 76 | 1014.2 |
| 20260508022313 | 75 | 360 | 0.0 | 5.0 | 0.00 | 0.01 | 0.00 | 76 | 1014.1 |
| 20260508021810 | 75 | 5 | 1.0 | 4.0 | 0.00 | 0.01 | 0.00 | 76 | 1013.9 |
| 20260508021307 | 75 | 34 | 1.0 | 4.0 | 0.00 | 0.01 | 0.00 | 76 | 1014.0 |
| 20260508020804 | 75 | 25 | 0.0 | 6.0 | 0.00 | 0.01 | 0.00 | 77 | 1014.1 |
| 20260508020321 | 75 | 9 | 0.0 | 6.0 | 0.00 | 0.01 | 0.00 | 77 | 1014.0 |
| 20260508015818 | 75 | 355 | 1.0 | 6.0 | 0.00 | 0.01 | 0.00 | 77 | 1013.9 |
| 20260508015314 | 75 | 28 | 1.0 | 6.0 | 0.00 | 0.01 | 0.00 | 77 | 1013.5 |
| 20260508014810 | 76 | 45 | 1.0 | 3.0 | 0.00 | 0.01 | 0.00 | 77 | 1013.5 |
| 20260508014305 | 76 | 11 | 0.0 | 2.0 | 0.00 | 0.01 | 0.00 | 77 | 1013.6 |
| 20260508013820 | 76 | 5 | 0.0 | 2.0 | 0.00 | 0.01 | 0.00 | 77 | 1013.7 |
| 20260508013316 | 76 | 5 | 1.0 | 3.0 | 0.00 | 0.01 | 0.00 | 77 | 1013.6 |
| 20260508012813 | 75 | 18 | 0.0 | 4.0 | 0.00 | 0.01 | 0.00 | 77 | 1013.7 |
| 20260508011816 | 75 | 24 | 0.0 | 3.0 | 0.00 | 0.01 | 0.00 | 78 | 1013.5 |
| 20260508011311 | 75 | 30 | 1.0 | 3.0 | 0.00 | 0.01 | 0.00 | 77 | 1013.3 |
| 20260508010807 | 75 | 29 | 0.0 | 1.0 | 0.00 | 0.01 | 0.00 | 77 | 1013.4 |
| 20260508010305 | 75 | 29 | 0.0 | 2.0 | 0.00 | 0.01 | 0.00 | 78 | 1013.3 |